Time;durP1;ratioP1;P1;durP2;ratioP2;P2;SDS_P1;SDS_P2;PMS_P1;PMS_P2;Temp;Humidity;BMP_temperature;BMP_pressure;BME280_temperature;BME280_humidity;BME280_pressure;Samples;Min_cycle;Max_cycle;Signal;HPM_P1;HPM_P2
2021/04/25 00:00:40;;;;;;;8.98;6.28;;;;;;;4.48;60.61;100092.06;1716207;83;21203;-66
2021/04/25 00:03:09;;;;;;;13.78;6.58;;;;;;;4.45;60.70;100088.48;1722339;83;21258;-65
2021/04/25 00:05:37;;;;;;;10.53;6.78;;;;;;;4.43;60.90;100081.19;1722278;83;21157;-65
2021/04/25 00:08:07;;;;;;;8.80;6.97;;;;;;;4.38;61.00;100080.97;1727026;81;21571;-65
2021/04/25 00:10:35;;;;;;;12.85;7.25;;;;;;;4.36;61.13;100077.70;1716130;83;21050;-70
2021/04/25 00:13:03;;;;;;;10.95;7.45;;;;;;;4.34;61.26;100079.73;1722205;83;21208;-66
2021/04/25 00:15:31;;;;;;;14.75;6.87;;;;;;;4.32;61.28;100076.44;1716263;83;21236;-66
2021/04/25 00:17:59;;;;;;;10.88;7.22;;;;;;;4.31;61.31;100072.98;1723140;81;21200;-64
2021/04/25 00:20:27;;;;;;;12.28;7.78;;;;;;;4.30;61.32;100074.50;1722392;83;21160;-66
2021/04/25 00:22:57;;;;;;;10.38;8.00;;;;;;;4.28;61.34;100073.36;1722272;83;21160;-64
2021/04/25 00:25:24;;;;;;;11.10;5.67;;;;;;;4.26;61.42;100069.27;1716260;83;21152;-67
2021/04/25 00:27:52;;;;;;;11.12;6.30;;;;;;;4.23;61.58;100072.31;1722371;83;22691;-66
2021/04/25 00:30:20;;;;;;;13.48;7.12;;;;;;;4.20;61.76;100066.06;1725001;81;21177;-67
2021/04/25 00:32:48;;;;;;;14.23;8.03;;;;;;;4.19;62.00;100073.22;1667758;84;21166;-67
2021/04/25 00:35:18;;;;;;;14.25;6.58;;;;;;;4.18;62.04;100068.09;1694035;84;21988;-67
2021/04/25 00:37:46;;;;;;;10.30;7.30;;;;;;;4.17;62.12;100059.28;1698781;83;22314;-66
2021/04/25 00:40:15;;;;;;;11.73;6.47;;;;;;;4.18;62.00;100065.43;1697568;81;21260;-66
2021/04/25 00:42:43;;;;;;;9.35;6.22;;;;;;;4.17;61.94;100058.48;1667036;83;21203;-68
2021/04/25 00:45:14;;;;;;;14.80;8.33;;;;;;;4.14;61.93;100058.86;1722368;81;21453;-67
2021/04/25 00:47:43;;;;;;;12.80;7.25;;;;;;;4.14;61.90;100056.20;1752274;81;21077;-67
2021/04/25 00:50:12;;;;;;;17.65;8.00;;;;;;;4.14;61.92;100054.37;1650879;84;21183;-65
2021/04/25 00:52:45;;;;;;;22.80;9.38;;;;;;;4.14;62.10;100050.87;1691463;82;21222;-67
2021/04/25 00:55:15;;;;;;;13.50;8.83;;;;;;;4.13;62.23;100057.22;1715174;82;21205;-68
2021/04/25 00:57:43;;;;;;;18.95;11.20;;;;;;;4.11;62.38;100049.96;1703672;84;21080;-66
2021/04/25 01:00:13;;;;;;;17.12;10.50;;;;;;;4.08;62.56;100043.17;1728894;82;21188;-64
2021/04/25 01:02:41;;;;;;;18.57;11.12;;;;;;;4.05;62.78;100045.42;1733749;82;21227;-65
2021/04/25 01:05:16;;;;;;;19.00;10.35;;;;;;;4.03;62.86;100044.82;1731718;82;21208;-64
2021/04/25 01:07:44;;;;;;;12.95;10.10;;;;;;;3.98;63.05;100041.93;1700859;82;21526;-64
2021/04/25 01:10:12;;;;;;;13.32;9.58;;;;;;;3.91;63.40;100041.89;1733754;82;21029;-65
2021/04/25 01:12:40;;;;;;;15.55;9.98;;;;;;;3.83;63.73;100043.39;1733983;82;21152;-63
2021/04/25 01:15:10;;;;;;;13.78;8.95;;;;;;;3.75;64.03;100038.22;1733559;82;21176;-62
2021/04/25 01:17:41;;;;;;;15.40;10.93;;;;;;;3.68;64.38;100039.53;1662201;84;21267;-64
2021/04/25 01:20:11;;;;;;;16.30;9.95;;;;;;;3.62;64.58;100035.50;1673758;84;21164;-65
2021/04/25 01:22:39;;;;;;;14.13;9.48;;;;;;;3.57;64.84;100037.42;1673556;84;21185;-64
2021/04/25 01:25:11;;;;;;;18.73;10.45;;;;;;;3.52;65.14;100037.19;1699785;82;21155;-63
2021/04/25 01:27:39;;;;;;;13.20;9.95;;;;;;;3.45;65.41;100034.47;1712683;82;21145;-65
2021/04/25 01:30:09;;;;;;;19.27;10.53;;;;;;;3.39;65.64;100023.81;1675061;84;21200;-64
2021/04/25 01:32:39;;;;;;;17.73;9.75;;;;;;;3.35;65.85;100026.05;1674235;84;21163;-63
2021/04/25 01:35:10;;;;;;;12.50;8.53;;;;;;;3.33;65.97;100020.60;1704715;84;21589;-66
2021/04/25 01:37:38;;;;;;;16.75;9.05;;;;;;;3.30;66.08;100024.98;1651194;84;21215;-63
2021/04/25 01:40:07;;;;;;;16.12;9.18;;;;;;;3.28;66.24;100033.15;1704586;84;21617;-64
2021/04/25 01:42:36;;;;;;;18.55;8.98;;;;;;;3.24;66.39;100022.59;1704770;84;21205;-64
2021/04/25 01:45:06;;;;;;;17.87;10.00;;;;;;;3.23;66.50;100030.75;1704742;84;21154;-65
2021/04/25 01:47:33;;;;;;;19.00;8.15;;;;;;;3.20;66.57;100025.33;1693903;82;21195;-65
2021/04/25 01:50:01;;;;;;;14.98;7.55;;;;;;;3.21;66.64;100018.19;1733928;82;21176;-64
2021/04/25 01:52:29;;;;;;;13.88;7.37;;;;;;;3.19;66.63;100014.38;1733893;82;21148;-64
2021/04/25 01:54:58;;;;;;;13.90;9.68;;;;;;;3.21;66.70;100015.53;1733962;82;22608;-65
2021/04/25 01:57:26;;;;;;;15.48;9.38;;;;;;;3.20;66.74;100012.55;1733872;82;21034;-64
2021/04/25 01:59:54;;;;;;;18.82;9.83;;;;;;;3.18;66.88;100014.56;1733781;82;21120;-66
2021/04/25 02:02:22;;;;;;;11.68;7.85;;;;;;;3.15;67.04;100015.79;1733950;82;21272;-64
2021/04/25 02:04:50;;;;;;;13.00;8.00;;;;;;;3.11;67.11;100008.40;1733979;82;21609;-66
2021/04/25 02:07:18;;;;;;;14.98;7.92;;;;;;;3.09;67.21;100005.92;1726122;82;22619;-64
2021/04/25 02:09:46;;;;;;;16.73;9.60;;;;;;;3.06;67.38;100007.15;1712622;82;21160;-64
2021/04/25 02:12:15;;;;;;;9.43;7.40;;;;;;;3.03;67.51;100015.48;1682356;82;21190;-63
2021/04/25 02:14:43;;;;;;;7.60;6.08;;;;;;;3.01;67.54;100004.75;1702604;82;21022;-65
2021/04/25 02:17:11;;;;;;;14.40;8.85;;;;;;;3.00;67.48;100001.77;1713975;83;21175;-63
2021/04/25 02:19:40;;;;;;;14.73;8.68;;;;;;;3.02;67.42;99999.22;1674546;84;21160;-63
2021/04/25 02:22:09;;;;;;;9.55;6.47;;;;;;;3.04;67.38;100007.84;1674673;84;21041;-65
2021/04/25 02:24:37;;;;;;;11.95;8.65;;;;;;;3.06;67.28;99999.69;1729669;82;21133;-64
2021/04/25 02:27:05;;;;;;;15.65;6.62;;;;;;;3.06;67.26;100003.66;1694418;83;21191;-63
2021/04/25 02:29:32;;;;;;;12.10;7.33;;;;;;;3.08;67.20;100000.30;1674642;84;21179;-65
2021/04/25 02:32:00;;;;;;;13.03;7.15;;;;;;;3.08;67.17;100002.45;1704567;84;21211;-65
2021/04/25 02:34:28;;;;;;;10.08;8.10;;;;;;;3.09;67.18;100003.27;1674271;84;21046;-64
2021/04/25 02:36:56;;;;;;;12.80;7.83;;;;;;;3.09;67.21;100004.59;1656112;82;21191;-64
2021/04/25 02:39:26;;;;;;;11.35;7.62;;;;;;;3.10;67.17;100004.09;1704609;84;21209;-65
2021/04/25 02:41:54;;;;;;;15.63;7.00;;;;;;;3.10;67.09;100001.44;1696795;82;21565;-65
2021/04/25 02:44:21;;;;;;;10.05;7.00;;;;;;;3.12;67.01;100000.21;1683206;82;21174;-64
2021/04/25 02:46:49;;;;;;;10.72;6.72;;;;;;;3.16;66.93;99999.34;1702917;82;21025;-64
2021/04/25 02:49:18;;;;;;;9.93;6.50;;;;;;;3.16;66.85;99989.53;1707686;82;21178;-62
2021/04/25 02:51:46;;;;;;;14.03;7.33;;;;;;;3.18;66.81;99988.81;1696195;82;21010;-65
2021/04/25 02:54:13;;;;;;;14.73;7.70;;;;;;;3.17;66.80;99992.98;1733655;82;21553;-64
2021/04/25 02:56:42;;;;;;;17.60;8.55;;;;;;;3.17;66.80;99991.66;1702565;82;21171;-64
2021/04/25 02:59:10;;;;;;;17.82;9.15;;;;;;;3.18;66.76;99990.14;1702555;82;21148;-65
2021/04/25 03:01:37;;;;;;;12.45;8.28;;;;;;;3.19;66.72;99993.63;1699719;82;21030;-65
2021/04/25 03:04:05;;;;;;;13.53;7.35;;;;;;;3.18;66.74;99996.79;1674438;82;21365;-66
2021/04/25 03:06:33;;;;;;;16.32;9.03;;;;;;;3.19;66.72;99994.95;1705441;82;21159;-65
2021/04/25 03:09:01;;;;;;;11.97;7.47;;;;;;;3.20;66.72;99996.60;1688120;82;21904;-66
2021/04/25 03:11:30;;;;;;;21.42;9.33;;;;;;;3.18;66.75;99994.13;1680334;84;22886;-66
2021/04/25 03:13:57;;;;;;;16.05;8.88;;;;;;;3.18;66.78;99990.65;1680182;84;21220;-64
2021/04/25 03:16:26;;;;;;;11.90;7.85;;;;;;;3.17;66.84;99997.80;1692259;83;21153;-62
2021/04/25 03:18:54;;;;;;;12.43;7.65;;;;;;;3.17;66.91;99994.31;1708904;84;21635;-64
2021/04/25 03:21:23;;;;;;;17.57;10.70;;;;;;;3.17;66.92;100004.44;1709000;84;21263;-67
2021/04/25 03:23:51;;;;;;;10.90;7.40;;;;;;;3.16;67.01;100000.67;1708874;84;21174;-65
2021/04/25 03:26:20;;;;;;;13.05;7.20;;;;;;;3.16;67.08;99991.37;1709011;83;21196;-63
2021/04/25 03:28:48;;;;;;;14.63;6.53;;;;;;;3.19;66.99;99993.63;1680199;84;21160;-65
2021/04/25 03:31:15;;;;;;;15.72;7.55;;;;;;;3.22;67.04;99995.38;1680531;84;21026;-64
2021/04/25 03:33:43;;;;;;;9.95;7.25;;;;;;;3.23;67.02;99994.37;1655432;85;21465;-64
2021/04/25 03:36:11;;;;;;;10.50;6.78;;;;;;;3.25;66.95;99993.68;1681409;84;21202;-63
2021/04/25 03:38:39;;;;;;;9.35;6.80;;;;;;;3.27;66.89;100002.26;1652981;85;21155;-65
2021/04/25 03:41:06;;;;;;;13.98;7.35;;;;;;;3.30;66.83;99994.42;1654855;84;21156;-65
2021/04/25 03:43:34;;;;;;;11.60;6.70;;;;;;;3.34;66.73;100005.80;1692177;84;21511;-64
2021/04/25 03:46:02;;;;;;;11.90;6.55;;;;;;;3.38;66.56;100005.72;1708924;83;21392;-63
2021/04/25 03:48:29;;;;;;;9.93;6.87;;;;;;;3.45;66.44;99993.80;1661607;84;21613;-65
2021/04/25 03:50:57;;;;;;;9.63;7.00;;;;;;;3.50;66.39;99992.16;1665319;85;21192;-63
2021/04/25 03:53:25;;;;;;;10.65;5.97;;;;;;;3.55;66.60;99978.81;1681801;83;21275;-64
2021/04/25 03:55:54;;;;;;;12.20;7.25;;;;;;;3.62;66.56;99976.98;1680782;85;21196;-66
2021/04/25 03:58:21;;;;;;;13.58;7.12;;;;;;;3.67;66.45;99985.20;1680689;85;22226;-65
2021/04/25 04:00:49;;;;;;;11.10;6.30;;;;;;;3.68;66.27;99984.19;1680744;85;21453;-65
2021/04/25 04:03:19;;;;;;;12.23;6.65;;;;;;;3.68;66.07;99979.69;1705124;84;21646;-64
2021/04/25 04:05:46;;;;;;;11.65;7.28;;;;;;;3.68;66.07;99974.38;1680173;83;21217;-63
2021/04/25 04:08:14;;;;;;;8.55;6.37;;;;;;;3.66;66.15;99979.05;1680388;84;21208;-64
2021/04/25 04:10:43;;;;;;;11.12;8.50;;;;;;;3.66;66.21;99980.38;1680484;84;21157;-64
2021/04/25 04:13:11;;;;;;;10.28;6.80;;;;;;;3.69;66.28;99979.19;1679634;84;21217;-64
2021/04/25 04:15:40;;;;;;;13.18;6.90;;;;;;;3.71;66.32;99980.61;1704823;83;21145;-65
2021/04/25 04:18:07;;;;;;;9.60;6.00;;;;;;;3.74;66.40;99978.08;1686627;84;21185;-64
2021/04/25 04:20:36;;;;;;;11.78;5.33;;;;;;;3.74;66.41;99982.08;1676794;84;21147;-67
2021/04/25 04:23:04;;;;;;;8.90;6.15;;;;;;;3.74;66.40;99985.52;1676833;84;22610;-64
2021/04/25 04:25:31;;;;;;;9.90;6.90;;;;;;;3.74;66.39;99984.73;1652835;85;21224;-63
2021/04/25 04:27:59;;;;;;;8.88;5.47;;;;;;;3.74;66.42;99983.41;1676027;84;21208;-66
2021/04/25 04:30:27;;;;;;;9.03;5.15;;;;;;;3.73;66.44;99975.93;1652175;85;21220;-64
2021/04/25 04:32:55;;;;;;;7.53;4.85;;;;;;;3.74;66.48;99983.41;1670289;84;21189;-66
2021/04/25 04:35:22;;;;;;;9.75;6.28;;;;;;;3.72;66.45;99976.94;1679643;84;21228;-65
2021/04/25 04:37:50;;;;;;;9.40;6.03;;;;;;;3.73;66.46;99982.58;1704072;84;21184;-64
2021/04/25 04:40:18;;;;;;;6.60;5.58;;;;;;;3.77;66.46;99986.48;1704386;84;21157;-65
2021/04/25 04:42:45;;;;;;;9.95;5.92;;;;;;;3.81;66.40;99986.39;1687839;84;21193;-65
2021/04/25 04:45:15;;;;;;;16.05;6.67;;;;;;;3.86;66.39;99981.80;1652768;84;21182;-64
2021/04/25 04:47:45;;;;;;;10.98;6.95;;;;;;;3.93;66.35;99977.34;1652163;85;21096;-63
2021/04/25 04:50:15;;;;;;;7.12;5.05;;;;;;;3.99;66.30;99984.50;1702644;84;21140;-65
2021/04/25 04:52:44;;;;;;;10.38;6.37;;;;;;;4.05;66.19;99981.05;1703435;82;21171;-66
2021/04/25 04:55:12;;;;;;;15.88;7.35;;;;;;;4.11;66.11;99974.92;1675645;85;21633;-65
2021/04/25 04:57:39;;;;;;;13.25;6.75;;;;;;;4.18;65.98;99978.41;1679556;84;21168;-64
2021/04/25 05:00:09;;;;;;;12.65;7.25;;;;;;;4.25;65.82;99974.44;1676044;85;22546;-64
2021/04/25 05:02:37;;;;;;;9.80;6.08;;;;;;;4.32;65.68;99980.58;1663681;84;21609;-64
2021/04/25 05:05:07;;;;;;;9.63;6.65;;;;;;;4.38;65.48;99979.27;1704312;84;21042;-63
2021/04/25 05:07:34;;;;;;;14.63;6.90;;;;;;;4.44;65.29;99976.83;1679586;84;21212;-64
2021/04/25 05:10:04;;;;;;;14.03;7.60;;;;;;;4.51;65.18;99977.67;1704363;84;21193;-65
2021/04/25 05:12:31;;;;;;;10.00;6.47;;;;;;;4.56;65.05;99968.02;1703136;84;22152;-65
2021/04/25 05:15:00;;;;;;;10.95;6.35;;;;;;;4.63;64.72;99982.17;1680333;84;21160;-65
2021/04/25 05:17:28;;;;;;;14.25;6.47;;;;;;;4.68;64.44;99975.72;1709253;83;21157;-62
2021/04/25 05:19:56;;;;;;;11.90;9.03;;;;;;;4.75;64.21;99970.37;1699799;84;21616;-66
2021/04/25 05:22:25;;;;;;;10.15;6.78;;;;;;;4.82;63.95;99968.55;1689917;84;22233;-66
2021/04/25 05:24:54;;;;;;;12.85;7.42;;;;;;;4.88;63.73;99981.05;1709138;84;22136;-64
2021/04/25 05:27:21;;;;;;;9.85;6.83;;;;;;;4.96;63.49;99989.34;1709088;84;21586;-66
2021/04/25 05:29:49;;;;;;;15.05;6.92;;;;;;;5.02;63.40;99991.19;1680494;84;21213;-66
2021/04/25 05:32:17;;;;;;;10.32;7.03;;;;;;;5.09;63.26;99983.48;1707832;84;21632;-65
2021/04/25 05:34:45;;;;;;;9.13;6.65;;;;;;;5.16;62.98;99975.48;1700722;84;21176;-62
2021/04/25 05:37:14;;;;;;;9.55;6.10;;;;;;;5.25;62.27;99978.23;1708945;84;22831;-62
2021/04/25 05:39:42;;;;;;;9.85;6.12;;;;;;;5.36;61.96;99970.11;1680184;84;21281;-68
2021/04/25 05:42:10;;;;;;;7.08;5.33;;;;;;;5.47;61.92;99973.45;1686965;84;21160;-62
2021/04/25 05:44:38;;;;;;;8.90;4.75;;;;;;;5.58;61.35;99983.48;1706278;84;21673;-61
2021/04/25 05:47:06;;;;;;;9.28;5.58;;;;;;;5.67;60.49;99964.87;1709198;84;21161;-64
2021/04/25 05:49:36;;;;;;;7.50;5.10;;;;;;;5.78;60.16;99973.56;1709132;84;21624;-63
2021/04/25 05:52:05;;;;;;;7.62;5.72;;;;;;;5.88;59.79;99973.14;1673493;84;21212;-63
2021/04/25 05:54:32;;;;;;;7.58;5.12;;;;;;;5.97;58.98;99981.20;1699201;84;21034;-63
2021/04/25 05:57:01;;;;;;;7.15;4.80;;;;;;;6.06;58.82;99967.39;1652884;85;21184;-62
2021/04/25 05:59:28;;;;;;;7.80;5.83;;;;;;;6.13;58.43;99974.05;1652982;85;22228;-63
2021/04/25 06:01:56;;;;;;;6.37;5.00;;;;;;;6.20;58.30;99982.00;1680781;85;21317;-61
2021/04/25 06:04:24;;;;;;;7.75;5.37;;;;;;;6.26;58.04;99969.95;1674274;84;21658;-64
2021/04/25 06:06:53;;;;;;;6.40;5.03;;;;;;;6.33;57.96;99981.95;1709276;84;21195;-63
2021/04/25 06:09:22;;;;;;;8.28;5.47;;;;;;;6.39;57.85;99977.05;1709072;84;21029;-63
2021/04/25 06:11:50;;;;;;;8.10;5.90;;;;;;;6.46;57.63;99971.16;1708919;83;21180;-61
2021/04/25 06:14:18;;;;;;;7.10;5.15;;;;;;;6.49;57.60;99964.86;1688751;84;21776;-62
2021/04/25 06:16:46;;;;;;;6.67;5.05;;;;;;;6.56;57.48;99982.20;1652902;85;21180;-63
2021/04/25 06:19:14;;;;;;;7.20;5.35;;;;;;;6.63;57.27;99980.80;1652879;85;21227;-63
2021/04/25 06:21:42;;;;;;;8.40;5.50;;;;;;;6.68;57.27;99976.95;1693697;84;21144;-62
2021/04/25 06:24:09;;;;;;;5.37;4.85;;;;;;;6.72;57.08;99976.81;1690843;84;21213;-64
2021/04/25 06:26:38;;;;;;;9.68;6.35;;;;;;;6.75;56.85;99977.73;1652971;85;21057;-62
2021/04/25 06:29:06;;;;;;;8.20;5.40;;;;;;;6.80;56.90;99964.53;1652925;85;21634;-63
2021/04/25 06:31:34;;;;;;;7.20;5.08;;;;;;;6.85;56.87;99966.86;1653749;85;21547;-63
2021/04/25 06:34:03;;;;;;;6.22;5.00;;;;;;;6.92;56.82;99966.27;1695515;84;21613;-63
2021/04/25 06:36:31;;;;;;;8.83;6.53;;;;;;;7.01;56.81;99965.46;1735195;82;21120;-61
2021/04/25 06:38:59;;;;;;;7.80;5.35;;;;;;;7.09;56.53;99965.72;1734350;82;21186;-63
2021/04/25 06:41:27;;;;;;;7.22;5.10;;;;;;;7.16;56.08;99972.63;1735273;82;21588;-62
2021/04/25 06:43:57;;;;;;;9.43;5.37;;;;;;;7.22;55.93;99960.23;1732938;82;21019;-62
2021/04/25 06:46:26;;;;;;;6.67;5.15;;;;;;;7.27;55.50;99967.08;1708075;82;21201;-62
2021/04/25 06:48:54;;;;;;;8.00;5.22;;;;;;;7.32;55.23;99972.58;1707572;82;21186;-64
2021/04/25 06:51:23;;;;;;;7.87;4.47;;;;;;;7.37;55.11;99972.22;1707720;82;21198;-62
2021/04/25 06:53:51;;;;;;;11.48;5.72;;;;;;;7.43;55.06;99963.28;1716467;82;21159;-63
2021/04/25 06:56:20;;;;;;;8.35;6.05;;;;;;;7.54;54.82;99970.27;1652807;85;21199;-62
2021/04/25 06:58:49;;;;;;;6.80;5.42;;;;;;;7.61;54.72;99970.52;1680518;85;21140;-63
2021/04/25 07:01:17;;;;;;;9.98;5.00;;;;;;;7.71;54.76;99969.47;1680624;85;21459;-63
2021/04/25 07:03:45;;;;;;;10.38;5.35;;;;;;;7.84;54.30;99976.52;1660529;85;21413;-64
2021/04/25 07:06:14;;;;;;;9.48;5.25;;;;;;;7.95;54.02;99972.27;1583972;86;21231;-62
2021/04/25 07:08:45;;;;;;;6.40;5.17;;;;;;;8.05;53.70;99970.69;1682353;85;21053;-65
2021/04/25 07:11:13;;;;;;;7.87;5.92;;;;;;;8.14;53.27;99968.51;1624908;86;21037;-63
2021/04/25 07:13:41;;;;;;;6.90;5.83;;;;;;;8.20;52.71;99969.73;1654175;84;21224;-64
2021/04/25 07:16:11;;;;;;;9.18;5.40;;;;;;;8.24;52.13;99999.08;1682168;85;22644;-64
2021/04/25 07:18:38;;;;;;;7.90;5.40;;;;;;;8.25;51.83;99985.95;1652972;85;21167;-64
2021/04/25 07:21:07;;;;;;;7.72;4.65;;;;;;;8.23;51.95;99996.61;1682405;83;21248;-64
2021/04/25 07:23:37;;;;;;;6.00;4.42;;;;;;;8.18;52.21;99986.58;1668940;85;21191;-62
2021/04/25 07:26:08;;;;;;;6.50;4.87;;;;;;;8.20;52.41;99986.36;1680543;84;21183;-62
2021/04/25 07:28:37;;;;;;;7.65;5.10;;;;;;;8.23;51.50;99980.54;1680798;85;21455;-65
2021/04/25 07:31:05;;;;;;;11.97;5.72;;;;;;;8.26;51.89;99975.53;1710529;83;21053;-65
2021/04/25 07:33:33;;;;;;;6.08;5.15;;;;;;;8.31;51.88;99973.02;1692334;84;21180;-64
2021/04/25 07:36:03;;;;;;;6.58;5.40;;;;;;;8.39;51.97;99974.58;1699056;84;20990;-63
2021/04/25 07:38:31;;;;;;;9.38;5.35;;;;;;;8.48;51.83;100003.20;1691798;84;21172;-63
2021/04/25 07:41:00;;;;;;;7.72;5.12;;;;;;;8.53;51.44;99970.66;1680523;85;22652;-64
2021/04/25 07:43:27;;;;;;;10.48;4.53;;;;;;;8.61;51.35;99978.35;1695703;84;21168;-66
2021/04/25 07:45:56;;;;;;;9.75;6.50;;;;;;;8.70;50.98;99971.61;1709129;84;21213;-62
2021/04/25 07:48:24;;;;;;;8.73;5.42;;;;;;;8.81;50.67;99975.36;1680558;84;21199;-66
2021/04/25 07:50:52;;;;;;;8.73;6.17;;;;;;;8.90;50.00;99967.78;1709101;84;21590;-64
2021/04/25 07:53:20;;;;;;;7.10;4.92;;;;;;;8.99;49.41;99989.19;1667394;85;21208;-64
2021/04/25 07:55:48;;;;;;;7.40;4.78;;;;;;;9.01;49.11;99971.83;1680512;85;21608;-63
2021/04/25 07:58:16;;;;;;;9.33;5.53;;;;;;;9.02;49.40;99984.17;1681399;84;21152;-63
2021/04/25 08:00:44;;;;;;;6.83;5.28;;;;;;;9.01;49.83;99987.92;1682446;83;21722;-62
2021/04/25 08:03:12;;;;;;;11.63;5.33;;;;;;;8.98;50.21;99968.25;1697669;84;21140;-64
2021/04/25 08:05:40;;;;;;;7.53;6.15;;;;;;;8.97;50.53;100006.06;1655320;85;22102;-64
2021/04/25 08:08:09;;;;;;;10.58;6.50;;;;;;;8.96;50.50;99967.69;1681160;85;21164;-63
2021/04/25 08:10:38;;;;;;;7.35;5.05;;;;;;;8.96;50.75;99985.64;1682287;84;21207;-63
2021/04/25 08:13:06;;;;;;;8.08;5.30;;;;;;;8.93;50.59;99969.99;1690617;84;21241;-64
2021/04/25 08:15:34;;;;;;;6.45;5.42;;;;;;;8.91;50.78;99970.25;1659276;85;21680;-62
2021/04/25 08:18:02;;;;;;;9.03;5.95;;;;;;;8.92;50.73;99971.06;1664248;85;21227;-64
2021/04/25 08:20:29;;;;;;;7.35;5.62;;;;;;;8.94;50.59;99960.38;1660369;85;21215;-65
2021/04/25 08:22:58;;;;;;;6.83;5.53;;;;;;;9.00;50.77;99954.62;1661071;85;21175;-63
2021/04/25 08:25:26;;;;;;;10.18;5.40;;;;;;;9.08;50.78;99956.42;1660954;83;21233;-62
2021/04/25 08:27:54;;;;;;;6.37;5.42;;;;;;;9.17;50.06;99962.24;1682140;85;21172;-65
2021/04/25 08:30:22;;;;;;;5.85;5.28;;;;;;;9.19;49.83;99940.84;1668808;83;22032;-62
2021/04/25 08:32:50;;;;;;;7.00;5.08;;;;;;;9.22;48.84;99947.60;1682317;83;21196;-62
2021/04/25 08:35:19;;;;;;;7.47;4.28;;;;;;;9.22;48.64;99956.99;1686610;83;21584;-64
2021/04/25 08:37:47;;;;;;;7.10;5.50;;;;;;;9.22;48.57;99946.78;1692577;83;21235;-65
2021/04/25 08:40:15;;;;;;;8.43;5.55;;;;;;;9.22;49.15;99945.44;1685347;83;21184;-67
2021/04/25 08:42:43;;;;;;;7.90;5.03;;;;;;;9.24;48.87;99943.35;1692069;83;21393;-63
2021/04/25 08:45:15;;;;;;;8.65;5.33;;;;;;;9.28;49.06;99943.16;1660282;85;21120;-62
2021/04/25 08:47:58;;;;;;;5.90;4.87;;;;;;;9.41;48.91;99930.83;1660481;85;21223;-63
2021/04/25 08:50:31;;;;;;;9.78;6.05;;;;;;;9.52;48.12;99938.88;1683766;83;21065;-63
2021/04/25 08:53:00;;;;;;;8.98;5.40;;;;;;;9.62;48.24;99939.09;1702892;83;21160;-63
2021/04/25 08:55:31;;;;;;;10.43;5.37;;;;;;;9.69;47.35;99956.95;1666691;85;20999;-62
2021/04/25 08:57:59;;;;;;;5.22;4.47;;;;;;;9.70;47.49;99954.52;1710212;83;21218;-65
2021/04/25 09:00:27;;;;;;;7.53;5.80;;;;;;;9.66;47.29;99946.13;1706356;83;21268;-64
2021/04/25 09:02:55;;;;;;;6.50;5.80;;;;;;;9.62;46.94;99944.45;1711256;83;21173;-62
2021/04/25 09:05:23;;;;;;;9.85;6.22;;;;;;;9.55;47.09;99936.23;1701130;83;21213;-64
2021/04/25 09:08:01;;;;;;;7.40;5.10;;;;;;;9.57;47.57;99931.45;1673467;85;21220;-64
2021/04/25 09:10:36;;;;;;;6.58;4.50;;;;;;;9.59;46.71;99941.44;1702039;83;21144;-64
2021/04/25 09:13:15;;;;;;;5.97;4.35;;;;;;;9.57;46.36;99928.77;1661323;85;21216;-66
2021/04/25 09:15:43;;;;;;;8.60;5.15;;;;;;;9.54;46.48;99932.72;1669006;83;21610;-65
2021/04/25 09:18:11;;;;;;;5.37;4.87;;;;;;;9.53;46.77;99945.06;1664591;83;21207;-64
2021/04/25 09:20:46;;;;;;;5.42;4.58;;;;;;;9.51;47.09;99948.50;1627491;86;21182;-64
2021/04/25 09:23:26;;;;;;;6.90;4.62;;;;;;;9.48;47.23;99932.87;1704183;83;21163;-65
2021/04/25 09:26:06;;;;;;;5.33;4.60;;;;;;;9.50;48.15;99948.20;1705826;83;21037;-64
2021/04/25 09:28:34;;;;;;;6.37;5.65;;;;;;;9.41;49.30;99945.59;1684409;85;21061;-64
2021/04/25 09:31:08;;;;;;;9.80;5.70;;;;;;;9.33;49.81;99931.20;1680052;85;21164;-63
2021/04/25 09:33:54;;;;;;;8.80;6.33;;;;;;;9.30;50.41;99941.08;1672921;83;21231;-63
2021/04/25 09:36:28;;;;;;;8.08;5.10;;;;;;;9.29;50.36;99930.05;1677433;85;21677;-63
2021/04/25 09:39:10;;;;;;;7.05;4.90;;;;;;;9.33;50.62;99917.78;1700709;83;21204;-63
2021/04/25 09:41:39;;;;;;;8.23;6.08;;;;;;;9.33;50.58;99913.75;1656097;85;21187;-65
2021/04/25 09:44:07;;;;;;;7.03;4.33;;;;;;;9.33;50.55;99924.48;1659101;85;21188;-63
2021/04/25 09:46:56;;;;;;;7.47;5.78;;;;;;;9.35;50.48;99910.32;1636759;85;21254;-64
2021/04/25 09:49:45;;;;;;;6.55;5.17;;;;;;;9.35;50.46;99915.69;1684217;83;21204;-64
2021/04/25 09:52:37;;;;;;;8.35;5.72;;;;;;;9.42;50.12;99927.92;1697155;83;21120;-64
2021/04/25 09:55:18;;;;;;;8.10;6.15;;;;;;;9.52;50.13;99900.47;1644558;85;21215;-63
2021/04/25 09:57:48;;;;;;;5.20;4.70;;;;;;;9.61;49.79;99906.56;1701635;83;21195;-63
2021/04/25 10:00:18;;;;;;;6.20;4.78;;;;;;;9.71;49.47;99909.98;1711855;83;22470;-62
2021/04/25 10:06:05;;;;;;;5.92;5.10;;;;;;;9.85;48.87;99893.05;1873754;75;28192;-62
2021/04/25 10:08:36;;;;;;;8.18;5.53;;;;;;;9.85;48.91;99890.36;1808384;76;21145;-63
2021/04/25 10:11:06;;;;;;;6.17;4.45;;;;;;;9.90;48.85;99891.80;1799323;78;22776;-61
2021/04/25 10:13:39;;;;;;;6.33;5.37;;;;;;;9.91;48.73;99894.78;1837245;77;21247;-62
2021/04/25 10:16:06;;;;;;;5.42;4.53;;;;;;;9.84;49.00;99902.16;1829247;77;21558;-61
2021/04/25 10:18:34;;;;;;;5.85;5.25;;;;;;;9.77;48.94;99910.91;1815435;77;21052;-62
2021/04/25 10:21:02;;;;;;;7.28;5.22;;;;;;;9.73;48.65;99909.75;1829423;78;21017;-65
2021/04/25 10:23:31;;;;;;;5.60;4.87;;;;;;;9.68;48.66;99898.38;1809101;78;21189;-63
2021/04/25 10:25:59;;;;;;;5.67;4.87;;;;;;;9.64;48.78;99910.11;1842383;77;21606;-63
2021/04/25 10:28:46;;;;;;;5.80;4.83;;;;;;;9.65;49.06;99900.19;1833291;77;21145;-65
2021/04/25 10:31:20;;;;;;;6.62;5.60;;;;;;;9.73;49.14;99901.70;1816596;77;21081;-69
2021/04/25 10:34:05;;;;;;;6.42;4.85;;;;;;;9.82;48.90;99905.62;1840979;76;21161;-61
2021/04/25 10:36:51;;;;;;;7.70;4.85;;;;;;;9.91;48.88;99897.47;1807698;78;22019;-63
2021/04/25 10:39:49;;;;;;;6.97;4.30;;;;;;;10.01;48.54;99897.14;1816991;77;21208;-64
2021/04/25 10:42:25;;;;;;;5.87;4.50;;;;;;;10.11;48.52;99903.23;1816856;77;21125;-65
2021/04/25 10:45:04;;;;;;;10.30;5.17;;;;;;;10.27;47.59;99904.32;1815654;78;21582;-64
2021/04/25 10:47:43;;;;;;;8.93;6.12;;;;;;;10.36;47.06;99898.30;1838627;77;21181;-62
2021/04/25 10:50:19;;;;;;;10.18;5.03;;;;;;;10.50;46.70;99898.83;1807484;78;22374;-65
2021/04/25 10:52:52;;;;;;;7.45;5.08;;;;;;;10.64;45.96;99889.89;1757754;80;21305;-66
2021/04/25 10:55:28;;;;;;;11.48;5.03;;;;;;;10.79;45.46;99902.24;1732510;81;21057;-63
2021/04/25 10:58:01;;;;;;;8.23;4.60;;;;;;;10.97;44.87;99884.48;1727030;80;21156;-63
2021/04/25 11:03:11;;;;;;;11.83;4.58;;;;;;;11.13;43.55;99874.72;1796629;79;21198;-66
2021/04/25 11:05:43;;;;;;;6.58;4.47;;;;;;;11.26;43.77;99891.88;1763904;79;21534;-66
2021/04/25 11:08:32;;;;;;;6.53;4.80;;;;;;;11.44;43.25;99881.32;1762723;78;21022;-64
2021/04/25 11:11:07;;;;;;;5.20;4.12;;;;;;;11.60;41.93;99889.88;1775071;79;21231;-63
2021/04/25 11:13:40;;;;;;;8.90;4.78;;;;;;;11.58;41.57;99859.67;1791162;78;21644;-64
2021/04/25 11:16:20;;;;;;;7.12;4.40;;;;;;;11.46;41.73;99860.35;1821262;78;22619;-66
2021/04/25 11:19:10;;;;;;;5.83;4.67;;;;;;;11.44;41.84;99867.33;1806953;78;21144;-65
2021/04/25 11:21:49;;;;;;;6.08;4.35;;;;;;;11.40;41.19;99854.61;1796139;78;21145;-65
2021/04/25 11:24:32;;;;;;;8.85;4.90;;;;;;;11.31;41.21;99882.52;1760841;80;21045;-67
2021/04/25 11:27:00;;;;;;;6.03;4.28;;;;;;;11.22;41.03;99871.34;1759923;80;21145;-64
2021/04/25 11:29:48;;;;;;;6.40;4.53;;;;;;;11.14;41.33;99858.33;1756931;80;21191;-63
2021/04/25 11:32:28;;;;;;;6.80;4.75;;;;;;;11.12;41.71;99873.11;1782392;79;21167;-62
2021/04/25 11:35:04;;;;;;;6.35;5.42;;;;;;;11.08;42.00;99863.34;1779912;78;21295;-68
2021/04/25 11:37:33;;;;;;;9.70;5.08;;;;;;;11.01;42.46;99861.38;1753611;80;21085;-66
2021/04/25 11:40:07;;;;;;;6.78;5.20;;;;;;;10.95;42.68;99855.64;1783197;79;21241;-64
2021/04/25 11:42:49;;;;;;;5.58;4.72;;;;;;;10.92;42.92;99861.53;1744264;79;21205;-64
2021/04/25 11:45:21;;;;;;;7.58;4.37;;;;;;;10.86;43.05;99896.96;1814190;78;21166;-64
2021/04/25 11:48:00;;;;;;;6.85;4.58;;;;;;;10.76;43.60;99887.92;1754991;80;21602;-63
2021/04/25 11:50:30;;;;;;;7.85;4.72;;;;;;;10.70;43.77;99870.87;1776455;79;21163;-62
2021/04/25 11:52:58;;;;;;;5.70;4.30;;;;;;;10.67;44.07;99867.88;1813800;78;21009;-63